Time,TemperatureF,DewpointF,PressureIn,WindDirection,WindDirectionDegrees,WindSpeedMPH,WindSpeedGustMPH,Humidity,HourlyPrecipIn,Conditions,Clouds,dailyrainin,SolarRadiationWatts/m^2,SoftwareType,DateUTC
2013-04-19 00:03:00,30.0,30.0,-100.00,NW,318,19.0,29.0,100,0.00,,,0.23,0.000000,,2013-04-19 05:03:00,
2013-04-19 00:11:00,30.0,30.0,-100.00,NW,317,20.0,26.0,99,0.00,,,0.23,0.000000,,2013-04-19 05:11:00,
2013-04-19 00:32:00,30.0,30.0,-100.00,NW,317,20.0,26.0,99,0.00,,,0.23,0.000000,,2013-04-19 05:32:00,
2013-04-19 00:42:00,30.0,30.0,-100.00,NW,317,20.0,26.0,99,0.00,,,0.23,0.000000,,2013-04-19 05:42:00,
2013-04-19 00:52:00,30.0,30.0,-100.00,NW,317,20.0,26.0,99,0.00,,,0.23,0.000000,,2013-04-19 05:52:00,
2013-04-19 01:02:00,30.0,30.0,-100.00,NW,317,20.0,26.0,99,0.00,,,0.23,0.000000,,2013-04-19 06:02:00,
2013-04-19 01:11:00,29.0,29.0,-100.00,NW,317,20.0,27.0,99,0.00,,,0.23,0.000000,,2013-04-19 06:11:00,
2013-04-19 01:32:00,29.0,29.0,-100.00,NW,317,20.0,27.0,99,0.00,,,0.23,0.000000,,2013-04-19 06:32:00,
2013-04-19 01:42:00,29.0,29.0,-100.00,NW,317,20.0,27.0,99,0.00,,,0.23,0.000000,,2013-04-19 06:42:00,
2013-04-19 01:53:00,29.0,29.0,-100.00,NW,317,20.0,27.0,99,0.00,,,0.23,0.000000,,2013-04-19 06:53:00,
2013-04-19 02:02:00,29.0,29.0,-100.00,NW,317,20.0,27.0,99,0.00,,,0.23,0.000000,,2013-04-19 07:02:00,
2013-04-19 03:11:00,29.0,29.0,-100.00,NW,313,21.0,26.0,98,-99.99,,,0.23,0.000000,,2013-04-19 08:11:00,
2013-04-19 03:42:00,29.0,29.0,-100.00,NW,313,21.0,26.0,98,-99.99,,,0.23,0.000000,,2013-04-19 08:42:00,
2013-04-19 03:52:00,29.0,29.0,-100.00,NW,313,21.0,26.0,98,-99.99,,,0.23,0.000000,,2013-04-19 08:52:00,
2013-04-19 04:01:00,29.0,29.0,-100.00,NW,313,21.0,26.0,98,-99.99,,,0.23,0.000000,,2013-04-19 09:01:00,
2013-04-19 04:11:00,29.0,29.0,-100.00,NW,318,21.0,28.0,98,0.00,,,0.23,0.000000,,2013-04-19 09:11:00,
2013-04-19 04:33:00,29.0,29.0,-100.00,NW,318,21.0,28.0,98,0.00,,,0.23,0.000000,,2013-04-19 09:33:00,
2013-04-19 04:43:00,29.0,29.0,-100.00,NW,318,21.0,28.0,98,0.00,,,0.23,0.000000,,2013-04-19 09:43:00,
2013-04-19 04:52:00,29.0,29.0,-100.00,NW,318,21.0,28.0,98,0.00,,,0.23,0.000000,,2013-04-19 09:52:00,
2013-04-19 05:02:00,29.0,29.0,-100.00,NW,318,21.0,28.0,98,0.00,,,0.23,0.000000,,2013-04-19 10:02:00,
2013-04-19 05:11:00,28.0,27.0,-100.00,NW,317,19.0,26.0,97,0.00,,,0.23,0.000000,,2013-04-19 10:11:00,
2013-04-19 05:33:00,28.0,27.0,-100.00,NW,317,19.0,26.0,97,0.00,,,0.23,0.000000,,2013-04-19 10:33:00,
2013-04-19 05:42:00,28.0,27.0,-100.00,NW,317,19.0,26.0,97,0.00,,,0.23,0.000000,,2013-04-19 10:42:00,
2013-04-19 05:52:00,28.0,27.0,-100.00,NW,317,19.0,26.0,97,0.00,,,0.23,0.000000,,2013-04-19 10:52:00,
2013-04-19 06:03:00,28.0,27.0,-100.00,NW,317,19.0,26.0,97,0.00,,,0.23,0.000000,,2013-04-19 11:03:00,
2013-04-19 06:11:00,28.0,27.0,-100.00,NW,313,19.0,25.0,95,0.00,,,0.23,0.000000,,2013-04-19 11:11:00,
2013-04-19 06:32:00,28.0,27.0,-100.00,NW,313,19.0,25.0,95,0.00,,,0.23,0.000000,,2013-04-19 11:32:00,
2013-04-19 06:43:00,28.0,27.0,-100.00,NW,313,19.0,25.0,95,0.00,,,0.23,0.000000,,2013-04-19 11:43:00,
2013-04-19 06:52:00,28.0,27.0,-100.00,NW,313,19.0,25.0,95,0.00,,,0.23,0.000000,,2013-04-19 11:52:00,
2013-04-19 07:03:00,28.0,27.0,-100.00,NW,313,19.0,25.0,95,0.00,,,0.23,0.000000,,2013-04-19 12:03:00,
2013-04-19 07:11:00,28.0,26.0,-100.00,NW,315,17.0,23.0,91,0.00,,,0.23,42.000000,,2013-04-19 12:11:00,
2013-04-19 07:42:00,28.0,26.0,-100.00,NW,315,17.0,23.0,91,0.00,,,0.23,42.000000,,2013-04-19 12:42:00,
2013-04-19 07:53:00,28.0,26.0,-100.00,NW,315,17.0,23.0,91,0.00,,,0.23,42.000000,,2013-04-19 12:53:00,
2013-04-19 08:01:00,28.0,26.0,-100.00,NW,315,17.0,23.0,91,0.00,,,0.23,42.000000,,2013-04-19 13:01:00,
2013-04-19 08:11:00,29.0,25.0,-100.00,NW,316,18.0,24.0,84,0.00,,,0.23,241.000000,,2013-04-19 13:11:00,
2013-04-19 08:42:00,29.0,25.0,-100.00,NW,316,18.0,24.0,84,0.00,,,0.23,241.000000,,2013-04-19 13:42:00,
2013-04-19 08:52:00,29.0,25.0,-100.00,NW,316,18.0,24.0,84,0.00,,,0.23,241.000000,,2013-04-19 13:52:00,
2013-04-19 09:02:00,29.0,25.0,-100.00,NW,316,18.0,24.0,84,0.00,,,0.23,241.000000,,2013-04-19 14:02:00,
2013-04-19 09:11:00,29.0,24.0,-100.00,NW,311,19.0,30.0,80,0.00,,,-99.99,442.000000,,2013-04-19 14:11:00,
2013-04-19 09:32:00,29.0,24.0,-100.00,NW,311,19.0,30.0,80,0.00,,,-99.99,442.000000,,2013-04-19 14:32:00,
2013-04-19 09:43:00,29.0,24.0,-100.00,NW,311,19.0,30.0,80,0.00,,,-99.99,442.000000,,2013-04-19 14:43:00,
2013-04-19 09:52:00,29.0,24.0,-100.00,NW,311,19.0,30.0,80,0.00,,,-99.99,442.000000,,2013-04-19 14:52:00,
2013-04-19 10:01:00,29.0,24.0,-100.00,NW,311,19.0,30.0,80,0.00,,,-99.99,442.000000,,2013-04-19 15:01:00,
2013-04-19 10:11:00,30.0,22.0,-100.00,NW,324,20.0,30.0,72,0.01,,,0.24,564.000000,,2013-04-19 15:11:00,
2013-04-19 10:43:00,30.0,22.0,-100.00,NW,324,20.0,30.0,72,0.01,,,0.24,564.000000,,2013-04-19 15:43:00,
2013-04-19 10:52:00,30.0,22.0,-100.00,NW,324,20.0,30.0,72,0.01,,,0.24,564.000000,,2013-04-19 15:52:00,
2013-04-19 11:03:00,30.0,22.0,-100.00,NW,324,20.0,30.0,72,0.01,,,0.24,564.000000,,2013-04-19 16:03:00,
2013-04-19 11:11:00,33.0,22.0,-100.00,NW,326,19.0,30.0,64,0.00,,,0.24,848.000000,,2013-04-19 16:11:00,
2013-04-19 11:43:00,33.0,22.0,-100.00,NW,326,19.0,30.0,64,0.00,,,0.24,848.000000,,2013-04-19 16:43:00,
2013-04-19 11:53:00,33.0,22.0,-100.00,NW,326,19.0,30.0,64,0.00,,,0.24,848.000000,,2013-04-19 16:53:00,
2013-04-19 12:02:00,33.0,22.0,-100.00,NW,326,19.0,30.0,64,0.00,,,0.24,848.000000,,2013-04-19 17:02:00,
2013-04-19 12:11:00,35.0,23.0,-100.00,NW,320,20.0,29.0,62,0.00,,,0.23,1039.000000,,2013-04-19 17:11:00,
2013-04-19 12:43:00,35.0,23.0,-100.00,NW,320,20.0,29.0,62,0.00,,,0.23,1039.000000,,2013-04-19 17:43:00,
2013-04-19 12:52:00,35.0,23.0,-100.00,NW,320,20.0,29.0,62,0.00,,,0.23,1039.000000,,2013-04-19 17:52:00,
2013-04-19 13:02:00,35.0,23.0,-100.00,NW,320,20.0,29.0,62,0.00,,,0.23,1039.000000,,2013-04-19 18:02:00,
2013-04-19 13:11:00,36.0,22.0,-100.00,NW,320,23.0,30.0,56,0.00,,,0.14,983.000000,,2013-04-19 18:11:00,
2013-04-19 13:43:00,36.0,22.0,-100.00,NW,320,23.0,30.0,56,0.00,,,0.14,983.000000,,2013-04-19 18:43:00,
2013-04-19 13:52:00,36.0,22.0,-100.00,NW,320,23.0,30.0,56,0.00,,,0.14,983.000000,,2013-04-19 18:52:00,
2013-04-19 14:02:00,36.0,22.0,-100.00,NW,320,23.0,30.0,56,0.00,,,0.14,983.000000,,2013-04-19 19:02:00,
2013-04-19 14:11:00,36.0,22.0,-100.00,NW,322,19.0,31.0,56,0.00,,,0.09,1101.000000,,2013-04-19 19:11:00,
2013-04-19 14:32:00,36.0,22.0,-100.00,NW,322,19.0,31.0,56,0.00,,,0.09,1101.000000,,2013-04-19 19:32:00,
2013-04-19 14:42:00,36.0,22.0,-100.00,NW,322,19.0,31.0,56,0.00,,,0.09,1101.000000,,2013-04-19 19:42:00,
2013-04-19 14:52:00,36.0,22.0,-100.00,NW,322,19.0,31.0,56,0.00,,,0.09,1101.000000,,2013-04-19 19:52:00,
2013-04-19 15:02:00,36.0,22.0,-100.00,NW,322,19.0,31.0,56,0.00,,,0.09,1101.000000,,2013-04-19 20:02:00,
2013-04-19 15:11:00,37.0,24.0,-100.00,NW,317,22.0,30.0,58,0.00,,,0.06,995.000000,,2013-04-19 20:11:00,
2013-04-19 15:42:00,37.0,24.0,-100.00,NW,317,22.0,30.0,58,0.00,,,0.06,995.000000,,2013-04-19 20:42:00,
2013-04-19 15:52:00,37.0,24.0,-100.00,NW,317,22.0,30.0,58,0.00,,,0.06,995.000000,,2013-04-19 20:52:00,
2013-04-19 16:01:00,37.0,24.0,-100.00,NW,317,22.0,30.0,58,0.00,,,0.06,995.000000,,2013-04-19 21:01:00,
2013-04-19 17:11:00,37.0,23.0,-100.00,NW,304,21.0,27.0,57,-99.99,,,0.02,702.000000,,2013-04-19 22:11:00,
2013-04-19 17:33:00,37.0,23.0,-100.00,NW,304,21.0,27.0,57,-99.99,,,0.02,702.000000,,2013-04-19 22:33:00,
2013-04-19 17:42:00,37.0,23.0,-100.00,NW,304,21.0,27.0,57,-99.99,,,0.02,702.000000,,2013-04-19 22:42:00,
2013-04-19 17:52:00,37.0,23.0,-100.00,NW,304,21.0,27.0,57,-99.99,,,0.02,702.000000,,2013-04-19 22:52:00,
2013-04-19 18:03:00,37.0,23.0,-100.00,NW,304,21.0,27.0,57,-99.99,,,0.02,702.000000,,2013-04-19 23:03:00,
2013-04-19 18:11:00,36.0,22.0,-100.00,NW,305,20.0,28.0,56,0.00,,,0.01,430.000000,,2013-04-19 23:11:00,
2013-04-19 18:42:00,36.0,22.0,-100.00,NW,305,20.0,28.0,56,0.00,,,0.01,430.000000,,2013-04-19 23:42:00,
2013-04-19 18:52:00,36.0,22.0,-100.00,NW,305,20.0,28.0,56,0.00,,,0.01,430.000000,,2013-04-19 23:52:00,
2013-04-19 19:02:00,36.0,22.0,-100.00,NW,305,20.0,28.0,56,0.00,,,0.01,430.000000,,2013-04-20 00:02:00,
2013-04-19 20:11:00,31.0,18.0,-100.00,NW,306,18.0,25.0,59,-99.99,,,0.01,28.000000,,2013-04-20 01:11:00,
2013-04-19 20:32:00,31.0,18.0,-100.00,NW,306,18.0,25.0,59,-99.99,,,0.01,28.000000,,2013-04-20 01:32:00,
2013-04-19 20:42:00,31.0,18.0,-100.00,NW,306,18.0,25.0,59,-99.99,,,0.01,28.000000,,2013-04-20 01:42:00,
2013-04-19 20:52:00,31.0,18.0,-100.00,NW,306,18.0,25.0,59,-99.99,,,0.01,28.000000,,2013-04-20 01:52:00,
2013-04-19 21:01:00,31.0,18.0,-100.00,NW,306,18.0,25.0,59,-99.99,,,0.01,28.000000,,2013-04-20 02:01:00,
2013-04-19 21:11:00,29.0,17.0,-100.00,WNW,302,14.0,21.0,61,0.00,,,-99.99,1.000000,,2013-04-20 02:11:00,
2013-04-19 21:32:00,29.0,17.0,-100.00,WNW,302,14.0,21.0,61,0.00,,,-99.99,1.000000,,2013-04-20 02:32:00,
2013-04-19 21:42:00,29.0,17.0,-100.00,WNW,302,14.0,21.0,61,0.00,,,-99.99,1.000000,,2013-04-20 02:42:00,
2013-04-19 21:52:00,29.0,17.0,-100.00,WNW,302,14.0,21.0,61,0.00,,,-99.99,1.000000,,2013-04-20 02:52:00,
2013-04-19 22:01:00,29.0,17.0,-100.00,WNW,302,14.0,21.0,61,0.00,,,-99.99,1.000000,,2013-04-20 03:01:00,
2013-04-19 22:11:00,29.0,19.0,-100.00,WNW,300,14.0,19.0,66,0.00,,,0.01,0.000000,,2013-04-20 03:11:00,
2013-04-19 22:43:00,29.0,19.0,-100.00,WNW,300,14.0,19.0,66,0.00,,,0.01,0.000000,,2013-04-20 03:43:00,
2013-04-19 22:53:00,29.0,19.0,-100.00,WNW,300,14.0,19.0,66,0.00,,,0.01,0.000000,,2013-04-20 03:53:00,
2013-04-19 23:03:00,29.0,19.0,-100.00,WNW,300,14.0,19.0,66,0.00,,,0.01,0.000000,,2013-04-20 04:03:00,
2013-04-19 23:11:00,27.0,19.0,-100.00,WNW,300,12.0,17.0,72,0.00,,,0.01,0.000000,,2013-04-20 04:11:00,
2013-04-19 23:43:00,27.0,19.0,-100.00,WNW,300,12.0,17.0,72,0.00,,,0.01,0.000000,,2013-04-20 04:43:00,
2013-04-19 23:53:00,27.0,19.0,-100.00,WNW,300,12.0,17.0,72,0.00,,,0.01,0.000000,,2013-04-20 04:53:00,